Lake Charles Regional, LA

6:10 PM CDT on September 21, 2017 (GMT -0500)
Lake Charles Regional | | Change Station
Active Advisory: Flood Warning

Elev 13 ft 30.13 °N, 93.22 °W | Updated 17 minutes ago

Clear
Clear
85 °F
Feels Like 91 °F
N
8
Wind Variable Wind from SSW

Today
High -- | Low -- °F
--% Chance of Precip.
Yesterday
High -- | Low -- °F
Precip. -- in
Pressure 29.96 in
Visibility 10.0 miles
Clouds Clear
Heat Index 91 °F
Dew Point 72 °F
Humidity 65%
Rainfall 0.00 in
Snow Depth Not available.
7:00 AM 7:10 PM
Waxing Crescent, 3% visible
METAR KLCH 212253Z 21007KT 10SM CLR 29/22 A2994 RMK AO2 SLP146 T02940222 $
Pressure 29.96 in
Visibility 10.0 miles
Clouds Clear
Heat Index 91 °F
Dew Point 72 °F
Humidity 65%
Rainfall 0.00 in
Snow Depth Not available.
7:00 AM 7:10 PM
Waxing Crescent, 3% visible
METAR KLCH 212253Z 21007KT 10SM CLR 29/22 A2994 RMK AO2 SLP146 T02940222 $

Get Your Daily Forecast Email!

Thanks for signing up!

Be on the lookout for a verification email in your inbox.

You'll start receiving severe weather alerts in your inbox..

×

10-Day Weather Forecast

Almanac

Astronomy

Sep. 21, 2017 Rise Set
Actual Time
Civil Twilight
Nautical Twilight
Astronomical Twilight
Moon
Length of Visible Light
Length of Day
Tomorrow will be .
, % of the Moon is Illuminated

Today's Extremes

State Highs State Lows

Community

WunderPhotos

Category 6

Welcome to Category 6. This is the collective home for Weather Underground's featured writeups by Dr. Jeff Masters (right), Bob Henson (left), Chris Burt, and other regular contributors.

Nearby

Air Quality

  Air Quality AQ Index Pollutant
Not available.

Snow Depth

Station Depth Elevation

Earthquake Activity

City Distance Mag. Time & Date
Minimum magnitude displayed is 2.5.

Coastal Water Temperatures

Place Temperature

Stations

Nearby Weather Stations

Station Location Temp. Windchill Dew Point Humidity Wind Precip. Elev Updated Type
                   

Watches & Warnings

Flood Warning
Issued: 10:04 AM CDT Sep. 21, 2017 – National Weather Service

The Flood Warning continues for
the Sabine River near Deweyville.
* Until further notice... or until the warning is cancelled.
* At 9:45 am Thursday the stage was 24.1 feet.
* Minor flooding is occurring and minor flooding is forecast.
* Flood stage is 24.0 feet.
* Forecast... the river will continue rising to near 24.2 feet by
Saturday early afternoon then begin falling.
* Impact... at stages near 24.0 feet... minor lowland flooding will
occur.

Lat... Lon 3057 9363 3011 9364 3011 9378 3031 9381
      3062 9378